Stormwatcher's Retreat Logo




                  Temp     Hi    Low   Out    Dew  Wind  Wind   Wind    Hi    Hi   Wind   Heat    THW   THSW                Rain  Solar   Solar Hi Solar   UV    UV    Hi     Heat    Cool    In     In    In     In     In   In Air          Wind  Wind    ISS   Arc.
  Date    Time     Out   Temp   Temp   Hum    Pt. Speed   Dir    Run Speed   Dir  Chill  Index  Index  Index   Bar    Rain  Rate   Rad.  Energy    Rad.  Index  Dose   UV     D-D     D-D    Temp   Hum    Dew   Heat    EMC Density     ET   Samp   Tx   Recept  Int.
------------------------------------------------------------------------------------------------------------------------------------------------------------------------------------------------------------------------------------------------------------------------
 9/20/19 12:10a   60.5   60.5   60.4    85   56.0   0.0     E   0.00   1.0     E   60.5   60.7   60.7   58.3  30.123  0.00  0.00     0     0.00      0     0.0  0.00   0.0   0.031   0.000   74.8    59   59.5   75.6  10.76  .0735    0.000   210    5    100.0   10 
 9/20/19 12:20a   60.4   60.5   60.4    85   55.9   0.0     E   0.00   2.0     E   60.4   60.5   60.5   58.1  30.123  0.00  0.00     0     0.00      0     0.0  0.00   0.0   0.032   0.000   74.8    59   59.5   75.6  10.76  .0735    0.000   212    5    100.0   10 
 9/20/19 12:30a   60.3   60.4   60.3    85   55.8   0.0     E   0.00   2.0     E   60.3   60.4   60.4   58.0  30.123  0.00  0.00     0     0.00      0     0.0  0.00   0.0   0.033   0.000   74.8    59   59.5   75.6  10.76  .0735    0.000   212    5    100.0   10 
 9/20/19 12:40a   60.2   60.3   60.2    85   55.7   0.0   ---   0.00   0.0   ---   60.2   60.3   60.3   57.9  30.125  0.00  0.00     0     0.00      0     0.0  0.00   0.0   0.033   0.000   74.8    59   59.5   75.6  10.76  .0735    0.000   211    5    100.0   10 
 9/20/19 12:50a   60.1   60.2   60.1    85   55.6   0.0     E   0.00   1.0     E   60.1   60.2   60.2   57.8  30.126  0.00  0.00     0     0.00      0     0.0  0.00   0.0   0.034   0.000   74.8    59   59.5   75.6  10.76  .0735    0.000   214    5    100.0   10 
 9/20/19  1:00a   60.0   60.1   60.0    85   55.5   0.0     E   0.00   1.0     E   60.0   60.1   60.1   57.7  30.124  0.00  0.00     0     0.00      0     0.0  0.00   0.0   0.035   0.000   74.8    59   59.5   75.6  10.76  .0735    0.001   213    5    100.0   10 
 9/20/19  1:10a   59.9   60.0   59.9    85   55.4   0.0     E   0.00   1.0     E   59.9   60.0   60.0   57.6  30.126  0.00  0.00     0     0.00      0     0.0  0.00   0.0   0.035   0.000   74.8    59   59.5   75.6  10.76  .0735    0.000   212    5    100.0   10 
 9/20/19  1:20a   59.9   59.9   59.9    85   55.4   0.0     E   0.00   1.0     E   59.9   60.0   60.0   57.6  30.125  0.00  0.00     0     0.00      0     0.0  0.00   0.0   0.035   0.000   74.7    59   59.4   75.5  10.76  .0735    0.000   211    5    100.0   10 
 9/20/19  1:30a   59.7   59.9   59.7    85   55.2   0.0     E   0.00   1.0     E   59.7   59.8   59.8   57.4  30.124  0.00  0.00     0     0.00      0     0.0  0.00   0.0   0.037   0.000   74.7    59   59.4   75.5  10.76  .0735    0.000   209    5    100.0   10 
 9/20/19  1:40a   59.6   59.7   59.6    86   55.4   0.0     E   0.00   1.0     E   59.6   59.7   59.7   57.3  30.123  0.00  0.00     0     0.00      0     0.0  0.00   0.0   0.038   0.000   74.7    59   59.4   75.5  10.76  .0735    0.000   210    5    100.0   10 
 9/20/19  1:50a   59.5   59.6   59.5    86   55.3   1.0     E   0.17   2.0     E   59.5   59.6   59.6   57.2  30.124  0.00  0.00     0     0.00      0     0.0  0.00   0.0   0.038   0.000   74.7    59   59.4   75.5  10.76  .0735    0.000   212    5    100.0   10 
 9/20/19  2:00a   59.5   59.5   59.5    86   55.3   0.0     E   0.00   1.0     E   59.5   59.6   59.6   57.2  30.124  0.00  0.00     0     0.00      0     0.0  0.00   0.0   0.038   0.000   74.7    59   59.4   75.5  10.76  .0735    0.000   211    5    100.0   10 
 9/20/19  2:10a   59.5   59.5   59.4    86   55.3   0.0     E   0.00   1.0     E   59.5   59.6   59.6   57.2  30.124  0.00  0.00     0     0.00      0     0.0  0.00   0.0   0.038   0.000   74.6    59   59.3   75.3  10.77  .0735    0.000   213    5    100.0   10 
 9/20/19  2:20a   59.3   59.5   59.3    86   55.1   0.0     E   0.00   1.0     E   59.3   59.4   59.4   57.0  30.124  0.00  0.00     0     0.00      0     0.0  0.00   0.0   0.040   0.000   74.6    59   59.3   75.3  10.77  .0735    0.000   213    5    100.0   10 
 9/20/19  2:30a   59.3   59.3   59.3    86   55.1   1.0     E   0.17   2.0     E   59.3   59.4   59.4   57.0  30.124  0.00  0.00     0     0.00      0     0.0  0.00   0.0   0.040   0.000   74.6    59   59.3   75.3  10.77  .0735    0.000   213    5    100.0   10 
 9/20/19  2:40a   59.3   59.4   59.3    86   55.1   1.0     E   0.17   2.0     E   59.3   59.4   59.4   57.0  30.124  0.00  0.00     0     0.00      0     0.0  0.00   0.0   0.040   0.000   74.6    59   59.3   75.3  10.77  .0735    0.000   211    5    100.0   10 
 9/20/19  2:50a   59.3   59.4   59.3    86   55.1   0.0     E   0.00   2.0     E   59.3   59.4   59.4   57.0  30.121  0.00  0.00     0     0.00      0     0.0  0.00   0.0   0.040   0.000   74.6    59   59.3   75.3  10.77  .0735    0.000   211    5    100.0   10 
 9/20/19  3:00a   59.3   59.3   59.3    86   55.1   1.0     E   0.17   2.0     E   59.3   59.4   59.4   57.0  30.121  0.00  0.00     0     0.00      0     0.0  0.00   0.0   0.040   0.000   74.5    59   59.2   75.2  10.77  .0735    0.000   212    5    100.0   10 
 9/20/19  3:10a   59.3   59.3   59.2    86   55.1   1.0     E   0.17   2.0     E   59.3   59.4   59.4   57.0  30.120  0.00  0.00     0     0.00      0     0.0  0.00   0.0   0.040   0.000   74.5    59   59.2   75.2  10.77  .0735    0.000   211    5    100.0   10 
 9/20/19  3:20a   59.1   59.2   59.1    86   54.9   1.0     E   0.17   2.0     E   59.1   59.1   59.1   56.7  30.119  0.00  0.00     0     0.00      0     0.0  0.00   0.0   0.041   0.000   74.5    59   59.2   75.2  10.77  .0735    0.000   209    5    100.0   10 
 9/20/19  3:30a   59.2   59.2   59.1    87   55.3   1.0     E   0.17   2.0     E   59.2   59.3   59.3   56.9  30.117  0.00  0.00     0     0.00      0     0.0  0.00   0.0   0.040   0.000   74.5    59   59.2   75.2  10.77  .0735    0.000   209    5    100.0   10 
 9/20/19  3:40a   59.1   59.2   59.1    86   54.9   1.0     E   0.17   2.0     E   59.1   59.1   59.1   56.7  30.117  0.00  0.00     0     0.00      0     0.0  0.00   0.0   0.041   0.000   74.5    59   59.2   75.2  10.77  .0735    0.000   212    5    100.0   10 
 9/20/19  3:50a   59.0   59.1   59.0    87   55.1   0.0     E   0.00   1.0     E   59.0   59.1   59.1   56.7  30.116  0.00  0.00     0     0.00      0     0.0  0.00   0.0   0.042   0.000   74.4    59   59.1   75.1  10.77  .0735    0.000   213    5    100.0   10 
 9/20/19  4:00a   58.8   59.0   58.8    86   54.6   0.0   ---   0.00   0.0   ---   58.8   58.8   58.8   56.4  30.113  0.00  0.00     0     0.00      0     0.0  0.00   0.0   0.043   0.000   74.4    59   59.1   75.1  10.77  .0735    0.000   211    5    100.0   10 
 9/20/19  4:10a   58.8   58.9   58.8    87   54.9   0.0   ---   0.00   0.0   ---   58.8   58.9   58.9   56.5  30.111  0.00  0.00     0     0.00      0     0.0  0.00   0.0   0.043   0.000   74.4    59   59.1   75.1  10.77  .0735    0.000   213    5    100.0   10 
 9/20/19  4:20a   58.6   58.8   58.6    87   54.7   0.0   ---   0.00   0.0   ---   58.6   58.6   58.6   56.2  30.112  0.00  0.00     0     0.00      0     0.0  0.00   0.0   0.044   0.000   74.4    59   59.1   75.1  10.77  .0735    0.000   212    5    100.0   10 
 9/20/19  4:30a   58.5   58.6   58.5    87   54.6   0.0   ---   0.00   0.0   ---   58.5   58.5   58.5   56.1  30.111  0.00  0.00     0     0.00      0     0.0  0.00   0.0   0.045   0.000   74.4    59   59.1   75.1  10.77  .0735    0.000   213    5    100.0   10 
 9/20/19  4:40a   58.3   58.5   58.3    87   54.4   0.0   ---   0.00   0.0   ---   58.3   58.3   58.3   55.9  30.110  0.00  0.00     0     0.00      0     0.0  0.00   0.0   0.047   0.000   74.4    59   59.1   75.1  10.77  .0735    0.000   211    5    100.0   10 
 9/20/19  4:50a   58.2   58.3   58.1    87   54.3   0.0     E   0.00   1.0     E   58.2   58.2   58.2   55.8  30.106  0.00  0.00     0     0.00      0     0.0  0.00   0.0   0.047   0.000   74.3    59   59.0   75.0  10.78  .0735    0.000   212    5    100.0   10 
 9/20/19  5:00a   58.2   58.2   58.1    87   54.3   1.0     E   0.17   2.0     E   58.2   58.2   58.2   55.8  30.111  0.00  0.00     0     0.00      0     0.0  0.00   0.0   0.047   0.000   74.3    59   59.0   75.0  10.78  .0735    0.000   211    5    100.0   10 
 9/20/19  5:10a   58.1   58.2   58.1    87   54.2   1.0     E   0.17   2.0     E   58.1   58.1   58.1   55.7  30.111  0.00  0.00     0     0.00      0     0.0  0.00   0.0   0.048   0.000   74.3    59   59.0   75.0  10.78  .0735    0.000   213    5    100.0   10 
 9/20/19  5:20a   58.1   58.1   58.0    87   54.2   1.0     E   0.17   2.0     E   58.1   58.1   58.1   55.7  30.114  0.00  0.00     0     0.00      0     0.0  0.00   0.0   0.048   0.000   74.3    59   59.0   75.0  10.78  .0735    0.000   211    5    100.0   10 
 9/20/19  5:30a   58.0   58.1   58.0    87   54.2   1.0     E   0.17   2.0     E   58.0   58.0   58.0   55.6  30.113  0.00  0.00     0     0.00      0     0.0  0.00   0.0   0.049   0.000   74.2    59   58.9   74.8  10.78  .0736    0.000   213    5    100.0   10 
 9/20/19  5:40a   58.4   58.4   58.0    87   54.5   1.0     E   0.17   2.0     E   58.4   58.4   58.4   56.0  30.114  0.00  0.00     0     0.00      0     0.0  0.00   0.0   0.046   0.000   74.2    59   58.9   74.8  10.78  .0736    0.000   213    5    100.0   10 
 9/20/19  5:50a   58.4   58.5   58.4    87   54.5   0.0     E   0.00   2.0     E   58.4   58.4   58.4   56.0  30.115  0.00  0.00     0     0.00      0     0.0  0.00   0.0   0.046   0.000   74.2    59   58.9   74.8  10.78  .0736    0.000   210    5    100.0   10 
 9/20/19  6:00a   58.6   58.6   58.4    88   55.1   1.0     E   0.17   2.0     E   58.6   58.7   58.7   56.3  30.112  0.00  0.00     0     0.00      0     0.0  0.00   0.0   0.044   0.000   74.1    59   58.9   74.7  10.79  .0736    0.000   211    5    100.0   10 
 9/20/19  6:10a   58.6   58.6   58.5    88   55.1   1.0     E   0.17   2.0     E   58.6   58.7   58.7   56.3  30.112  0.00  0.00     0     0.00      0     0.0  0.00   0.0   0.044   0.000   74.1    59   58.9   74.7  10.79  .0736    0.000   211    5    100.0   10 
 9/20/19  6:20a   59.0   59.0   58.6    88   55.4   0.0     E   0.00   1.0     E   59.0   59.1   59.1   56.7  30.112  0.00  0.00     0     0.00      0     0.0  0.00   0.0   0.042   0.000   74.0    59   58.8   74.6  10.79  .0736    0.000   211    5    100.0   10 
 9/20/19  6:30a   58.9   59.1   58.9    87   55.0   1.0     E   0.17   1.0     E   58.9   59.0   59.0   56.6  30.116  0.00  0.00     0     0.00      0     0.0  0.00   0.0   0.042   0.000   74.0    59   58.8   74.6  10.79  .0736    0.000   211    5    100.0   10 
 9/20/19  6:40a   58.9   59.0   58.8    87   55.0   0.0     E   0.00   1.0     E   58.9   59.0   59.0   56.6  30.115  0.00  0.00     0     0.00      0     0.0  0.00   0.0   0.042   0.000   74.0    59   58.8   74.6  10.79  .0736    0.000   210    5    100.0   10 
 9/20/19  6:50a   58.9   58.9   58.8    87   55.0   1.0     E   0.17   2.0     E   58.9   59.0   59.0   56.6  30.115  0.00  0.00     0     0.00      0     0.0  0.00   0.0   0.042   0.000   74.0    59   58.8   74.6  10.79  .0736    0.000   210    5    100.0   10 
 9/20/19  7:00a   58.8   58.9   58.7    88   55.3   0.0     E   0.00   1.0     E   58.8   58.9   58.9   56.5  30.118  0.00  0.00     0     0.00      0     0.0  0.00   0.0   0.043   0.000   74.0    59   58.8   74.6  10.79  .0736    0.000   210    5    100.0   10 
 9/20/19  7:10a   59.3   59.3   58.8    88   55.7   0.0     E   0.00   2.0     E   59.3   59.4   59.4   57.1  30.119  0.00  0.00     2     0.03      7     0.0  0.00   0.0   0.040   0.000   74.0    59   58.8   74.6  10.79  .0736    0.000   214    5    100.0   10 
 9/20/19  7:20a   59.2   59.3   59.2    87   55.3   0.0     E   0.00   1.0     E   59.2   59.3   59.3   57.1  30.122  0.00  0.00     9     0.13      9     0.0  0.00   0.0   0.040   0.000   74.0    59   58.8   74.6  10.79  .0736    0.000   213    5    100.0   10 
 9/20/19  7:30a   59.1   59.2   59.1    87   55.2   0.0     E   0.00   1.0     E   59.1   59.2   59.2   57.2  30.125  0.00  0.00    17     0.24     25     0.0  0.00   0.0   0.041   0.000   74.0    59   58.8   74.6  10.79  .0736    0.000   211    5    100.0   10 
 9/20/19  7:40a   59.3   59.3   59.1    88   55.7   0.0     E   0.00   1.0     E   59.3   59.4   59.4   57.6  30.124  0.00  0.00    27     0.39     30     0.0  0.00   0.0   0.040   0.000   74.0    59   58.8   74.6  10.79  .0736    0.000   212    5    100.0   10 
 9/20/19  7:50a   59.3   59.3   59.2    88   55.7   0.0     E   0.00   1.0     E   59.3   59.4   59.4   58.7  30.127  0.00  0.00    23     0.33     26     0.0  0.00   0.0   0.040   0.000   73.9    59   58.7   74.5  10.79  .0737    0.000   213    5    100.0   10 
 9/20/19  8:00a   59.4   59.4   59.3    88   55.8   0.0     E   0.00   1.0     E   59.4   59.6   59.6   59.4  30.132  0.00  0.00    35     0.50     46     0.0  0.00   0.0   0.039   0.000   73.9    59   58.7   74.5  10.79  .0737    0.000   209    5    100.0   10 
 9/20/19  8:10a   59.5   59.5   59.4    88   55.9   0.0   ---   0.00   0.0   ---   59.5   59.7   59.7   60.4  30.135  0.00  0.00    54     0.77     56     0.0  0.00   0.0   0.038   0.000   73.9    59   58.7   74.5  10.79  .0737    0.000   213    5    100.0   10 
 9/20/19  8:20a   59.6   59.6   59.5    88   56.0   0.0   ---   0.00   0.0   ---   59.6   59.8   59.8   60.5  30.137  0.00  0.00    56     0.80     58     0.0  0.00   0.0   0.038   0.000   73.9    59   58.7   74.5  10.79  .0737    0.000   212    5    100.0   10 
 9/20/19  8:30a   59.8   59.8   59.6    88   56.2   0.0     E   0.00   1.0     E   59.8   60.0   60.0   60.6  30.138  0.00  0.00    55     0.79     60     0.0  0.00   0.0   0.036   0.000   73.9    59   58.7   74.5  10.79  .0737    0.000   213    5    100.0   10 
 9/20/19  8:40a   59.9   59.9   59.8    88   56.3   0.0     E   0.00   1.0     E   59.9   60.1   60.1   59.8  30.139  0.00  0.00    38     0.54     46     0.0  0.00   0.0   0.035   0.000   73.9    59   58.7   74.5  10.79  .0737    0.000   212    5    100.0   10 
 9/20/19  8:50a   60.1   60.1   59.9    88   56.5   0.0     E   0.00   1.0     E   60.1   60.3   60.3   60.0  30.140  0.00  0.00    39     0.56     47     0.0  0.00   0.0   0.034   0.000   73.9    59   58.7   74.5  10.79  .0737    0.000   211    5    100.0   10 
 9/20/19  9:00a   60.3   60.3   60.1    88   56.7   0.0     E   0.00   1.0     E   60.3   60.5   60.5   61.1  30.143  0.00  0.00    63     0.90     69     0.0  0.00   0.0   0.033   0.000   73.9    59   58.7   74.5  10.79  .0737    0.001   213    5    100.0   10 
 9/20/19  9:10a   60.6   60.6   60.3    88   57.0   0.0     E   0.00   1.0     E   60.6   60.9   60.9   62.0  30.143  0.00  0.00    77     1.10     81     0.0  0.00   0.0   0.031   0.000   73.9    59   58.7   74.5  10.79  .0737    0.000   214    5    100.0   10 
 9/20/19  9:20a   60.6   60.7   60.6    88   57.0   1.0     E   0.17   2.0     E   60.6   60.9   60.9   62.2  30.142  0.00  0.00    85     1.22     98     0.0  0.00   0.0   0.031   0.000   73.9    59   58.7   74.5  10.79  .0737    0.000   213    5    100.0   10 
 9/20/19  9:30a   60.8   60.9   60.6    88   57.2   0.0     E   0.00   2.0     E   60.8   61.1   61.1   62.6  30.142  0.00  0.00    95     1.36    114     0.0  0.00   0.0   0.029   0.000   73.9    59   58.7   74.5  10.79  .0737    0.000   212    5    100.0   10 
 9/20/19  9:40a   61.1   61.1   60.8    88   57.5   1.0     E   0.17   2.0     E   61.1   61.4   61.4   62.2  30.144  0.00  0.00    77     1.10    105     0.0  0.00   0.0   0.027   0.000   73.9    59   58.7   74.5  10.79  .0737    0.000   212    5    100.0   10 
 9/20/19  9:50a   61.6   61.6   61.1    88   58.0   0.0     E   0.00   1.0     E   61.6   62.0   62.0   63.3  30.144  0.00  0.00    94     1.35    100     0.0  0.00   0.0   0.024   0.000   73.9    59   58.7   74.5  10.79  .0737    0.000   210    5    100.0   10 
 9/20/19 10:00a   61.9   61.9   61.6    88   58.3   0.0     E   0.00   1.0     E   61.9   62.3   62.3   63.2  30.145  0.00  0.00    83     1.19     93     0.0  0.00   0.0   0.022   0.000   73.9    59   58.7   74.5  10.79  .0737    0.002   212    5    100.0   10 
 9/20/19 10:10a   61.7   61.9   61.7    87   57.8   1.0     E   0.17   2.0     E   61.7   62.1   62.1   62.6  30.150  0.00  0.00    74     1.06     88     0.0  0.00   0.0   0.023   0.000   74.0    59   58.8   74.6  10.79  .0737    0.000   214    5    100.0   10 
 9/20/19 10:20a   62.2   62.2   61.7    88   58.6   0.0    NE   0.00   2.0    NE   62.2   62.7   62.7   65.6  30.147  0.00  0.00   154     2.21    221     0.0  0.00   0.0   0.019   0.000   74.0    59   58.8   74.6  10.79  .0737    0.000   211    5    100.0   10 
 9/20/19 10:30a   62.9   62.9   62.2    88   59.3   0.0    NE   0.00   1.0    NE   62.9   63.5   63.5   68.9  30.147  0.00  0.00   249     3.57    315     0.0  0.00   0.0   0.015   0.000   74.0    59   58.8   74.6  10.79  .0737    0.000   212    5    100.0   10 
 9/20/19 10:40a   63.0   63.3   62.9    88   59.4   1.0    SW   0.17   4.0     S   63.0   63.6   63.6   72.0  30.147  0.00  0.00   392     5.62    492     0.0  0.00   0.0   0.014   0.000   74.0    59   58.8   74.6  10.79  .0737    0.000   213    5    100.0   10 
 9/20/19 10:50a   62.1   63.0   62.1    87   58.2   3.0    SW   0.50   5.0    SW   62.1   62.5   62.5   69.0  30.149  0.00  0.00   308     4.42    378     0.0  0.00   0.0   0.020   0.000   74.1    59   58.9   74.7  10.79  .0737    0.000   213    5    100.0   10 
 9/20/19 11:00a   62.2   62.2   62.0    87   58.3   2.0    SW   0.33   4.0   WSW   62.2   62.6   62.6   68.5  30.152  0.00  0.00   290     4.16    387     0.0  0.00   0.0   0.019   0.000   74.1    59   58.9   74.7  10.79  .0737    0.005   212    5    100.0   10 
 9/20/19 11:10a   62.1   62.2   62.1    87   58.2   2.0    SW   0.33   4.0   WSW   62.1   62.5   62.5   70.3  30.152  0.00  0.00   383     5.49    471     0.0  0.00   0.0   0.020   0.000   74.2    59   58.9   74.8  10.78  .0737    0.000   211    5    100.0   10 
 9/20/19 11:20a   62.3   62.3   62.1    87   58.4   3.0    SW   0.50   4.0   WSW   62.3   62.7   62.7   71.0  30.154  0.00  0.00   420     6.02    589     0.0  0.00   0.0   0.019   0.000   74.2    59   58.9   74.8  10.78  .0737    0.000   212    5    100.0   10 
 9/20/19 11:30a   62.3   62.5   62.3    87   58.4   3.0   WSW   0.50   4.0   WSW   62.3   62.7   62.7   72.7  30.155  0.01  0.00   532     7.63    596     0.4  0.03   0.6   0.019   0.000   74.3    59   59.0   75.0  10.78  .0737    0.000   213    5    100.0   10 
 9/20/19 11:40a   62.4   62.5   62.2    87   58.5   3.0    SW   0.50   4.0    SW   62.4   62.9   62.9   71.1  30.154  0.00  0.00   421     6.04    485     0.0  0.00   0.0   0.018   0.000   74.3    59   59.0   75.0  10.78  .0736    0.000   213    5    100.0   10 
 9/20/19 11:50a   62.6   62.6   62.3    87   58.7   3.0    SW   0.50   5.0   WSW   62.6   63.1   63.1   71.3  30.157  0.00  0.00   427     6.12    490     4.7  0.34   6.0   0.017   0.000   74.4    59   59.1   75.1  10.77  .0736    0.000   211    5    100.0   10 
 9/20/19 12:00p   62.8   62.8   62.5    86   58.5   3.0    SW   0.50   6.0   SSW   62.8   63.3   63.3   71.2  30.160  0.00  0.00   414     5.93    517     6.6  0.47   7.1   0.015   0.000   74.5    59   59.2   75.2  10.77  .0736    0.010   213    5    100.0   10 
 9/20/19 12:10p   62.9   63.0   62.8    86   58.6   4.0     W   0.67   7.0   WSW   62.9   63.4   63.4   72.3  30.158  0.00  0.00   477     6.84    584     7.2  0.51   7.7   0.015   0.000   74.5    59   59.2   75.2  10.77  .0736    0.000   213    5    100.0   10 
 9/20/19 12:20p   63.1   63.1   62.8    86   58.8   4.0   WSW   0.67   7.0     W   63.1   63.6   63.6   74.7  30.160  0.00  0.00   733    10.51    830     8.4  0.60   8.9   0.013   0.000   74.5    59   59.2   75.2  10.77  .0736    0.000   212    5    100.0   10 
 9/20/19 12:30p   63.0   63.2   63.0    86   58.7   4.0   WSW   0.67   7.0   WSW   63.0   63.5   63.5   74.6  30.160  0.00  0.00   671     9.62    738     8.6  0.61   8.9   0.014   0.000   74.6    59   59.3   75.3  10.77  .0736    0.000   212    5    100.0   10 
 9/20/19 12:40p   62.8   63.1   62.7    85   58.2   4.0     W   0.67   7.0     W   62.8   63.3   63.3   74.5  30.162  0.00  0.00   719    10.31    722     8.8  0.63   8.9   0.015   0.000   74.7    59   59.4   75.5  10.76  .0736    0.000   211    5    100.0   10 
 9/20/19 12:50p   63.1   63.1   62.7    85   58.5   3.0     W   0.50   6.0     W   63.1   63.6   63.6   74.8  30.161  0.00  0.00   746    10.69    817     8.9  0.64   9.1   0.013   0.000   74.7    59   59.4   75.5  10.76  .0736    0.000   211    5    100.0   10 
 9/20/19  1:00p   63.1   63.1   63.0    85   58.5   4.0     W   0.67   6.0   WNW   63.1   63.6   63.6   74.5  30.165  0.00  0.00   656     9.40    860     8.5  0.61   9.2   0.013   0.000   74.8    59   59.5   75.6  10.76  .0736    0.014   212    5    100.0   10 
 9/20/19  1:10p   63.4   63.4   63.0    85   58.8   4.0   WNW   0.67   7.0    NW   63.4   63.9   63.9   73.5  30.170  0.00  0.00   534     7.65    668     8.3  0.59   8.9   0.011   0.000   74.9    59   59.6   75.7  10.75  .0736    0.000   212    5    100.0   10 
 9/20/19  1:20p   63.9   64.0   63.4    85   59.3   5.0   WNW   0.83   9.0   WNW   63.9   64.5   64.5   75.4  30.172  0.00  0.00   646     9.26    698     8.8  0.63   9.0   0.008   0.000   74.9    59   59.6   75.7  10.75  .0736    0.000   212    5    100.0   10 
 9/20/19  1:30p   63.9   64.0   63.5    85   59.3   4.0   WNW   0.67   8.0   WNW   63.9   64.5   64.5   75.6  30.168  0.00  0.00   765    10.97    835     9.0  0.64   9.2   0.008   0.000   75.0    59   59.7   75.8  10.75  .0736    0.000   211    5    100.0   10 
 9/20/19  1:40p   63.5   64.1   63.5    84   58.6   5.0   WNW   0.83   8.0    NW   63.5   64.0   64.0   75.0  30.167  0.00  0.00   766    10.98    882     8.3  0.59   9.1   0.010   0.000   75.0    59   59.7   75.8  10.75  .0736    0.000   213    5    100.0   10 
 9/20/19  1:50p   64.2   64.2   63.5    85   59.6   3.0    NW   0.50   7.0   WNW   64.2   64.8   64.8   74.0  30.167  0.00  0.00   499     7.15    589     7.5  0.54   8.1   0.006   0.000   75.1    59   59.8   75.9  10.75  .0735    0.000   211    5    100.0   10 
 9/20/19  2:00p   65.2   65.2   64.3    84   60.2   2.0   NNW   0.33   5.0   NNE   65.2   66.0   66.0   77.0  30.167  0.00  0.00   652     9.35    756     7.8  0.56   8.1   0.000   0.001   75.1    59   59.8   75.9  10.75  .0735    0.014   214    5    100.0   10 
 9/20/19  2:10p   65.8   65.8   65.2    84   60.8   2.0   NNE   0.33   4.0   NNE   65.8   66.7   66.7   77.8  30.167  0.00  0.00   662     9.49    775     7.7  0.55   8.0   0.000   0.006   75.2    59   59.9   76.0  10.74  .0735    0.000   212    5    100.0   10 
 9/20/19  2:20p   66.3   66.4   65.9    82   60.6   3.0     N   0.50   5.0    NE   66.3   67.3   67.3   77.6  30.164  0.00  0.00   567     8.13    666     7.1  0.51   7.6   0.000   0.009   75.2    59   59.9   76.0  10.74  .0735    0.000   211    5    100.0   10 
 9/20/19  2:30p   66.4   66.7   66.3    81   60.4   3.0    NE   0.50   5.0     N   66.4   67.4   67.4   76.4  30.160  0.00  0.00   472     6.77    564     7.1  0.51   7.9   0.000   0.010   75.3    59   60.0   76.1  10.74  .0735    0.000   213    5    100.0   10 
 9/20/19  2:40p   66.5   66.5   66.3    81   60.5   3.0   NNE   0.50   4.0   NNE   66.5   67.5   67.5   76.2  30.161  0.00  0.00   452     6.48    584     6.4  0.46   6.8   0.000   0.010   75.4    59   60.1   76.1  10.73  .0735    0.000   213    5    100.0   10 
 9/20/19  2:50p   65.4   66.6   65.4    80   59.1   2.0   WNW   0.33   4.0   WNW   65.4   66.2   66.2   74.1  30.162  0.00  0.00   405     5.81    455     6.0  0.43   6.3   0.000   0.003   75.5    59   60.2   76.2  10.73  .0735    0.000   212    5    100.0   10 
 9/20/19  3:00p   65.6   65.6   65.3    81   59.6   2.0   WNW   0.33   4.0   NNE   65.6   66.4   66.4   74.2  30.164  0.00  0.00   396     5.68    439     6.3  0.45   6.5   0.000   0.004   75.5    59   60.2   76.2  10.73  .0735    0.011   213    5    100.0   10 
 9/20/19  3:10p   65.8   66.1   65.6    80   59.5   3.0    NW   0.50   5.0   NNE   65.8   66.7   66.7   77.0  30.165  0.00  0.00   546     7.83    666     6.9  0.49   7.3   0.000   0.006   75.5    59   60.2   76.2  10.73  .0735    0.000   213    5    100.0   10 
 9/20/19  3:20p   66.5   66.7   65.7    79   59.8   4.0     N   0.67   7.0   NNE   66.5   67.4   67.4   78.0  30.166  0.00  0.00   568     8.14    603     7.2  0.51   7.5   0.000   0.010   75.5    59   60.2   76.2  10.73  .0735    0.000   211    5    100.0   10 
 9/20/19  3:30p   67.4   67.4   66.5    79   60.7   4.0   NNE   0.67   7.0   NNE   67.4   68.5   68.5   79.4  30.167  0.00  0.00   589     8.44    721     7.4  0.53   7.8   0.000   0.017   75.5    59   60.2   76.2  10.73  .0735    0.000   213    5    100.0   10 
 9/20/19  3:40p   67.2   67.4   67.0    79   60.5   3.0     N   0.50   5.0     N   67.2   68.3   68.3   77.1  30.166  0.00  0.00   424     6.08    468     6.7  0.48   7.0   0.000   0.015   75.5    59   60.2   76.2  10.73  .0735    0.000   209    5    100.0   10 
 9/20/19  3:50p   66.9   67.4   66.9    77   59.5   3.0     N   0.50   5.0   ENE   66.9   67.7   67.7   75.7  30.167  0.00  0.00   373     5.35    388     6.0  0.43   6.3   0.000   0.013   75.5    59   60.2   76.2  10.73  .0735    0.000   212    5    100.0   10 
 9/20/19  4:00p   66.4   66.9   66.4    78   59.3   3.0   NNE   0.50   4.0   ENE   66.4   67.2   67.2   73.3  30.170  0.00  0.00   281     4.03    309     5.4  0.39   5.5   0.000   0.010   75.6    59   60.3   76.3  10.73  .0735    0.011   211    5    100.0   10 
 9/20/19  4:10p   66.1   66.4   66.1    79   59.4   3.0   NNE   0.50   4.0   NNE   66.1   66.9   66.9   72.7  30.170  0.00  0.00   264     3.78    295     5.4  0.39   5.6   0.000   0.008   75.7    59   60.4   76.4  10.72  .0734    0.000   213    5    100.0   10 
 9/20/19  4:20p   66.2   66.2   65.9    80   59.8   3.0    NW   0.50   4.0    NW   66.2   67.1   67.1   77.0  30.170  0.00  0.00   453     6.49    601     5.6  0.40   5.8   0.000   0.008   75.7    59   60.4   76.4  10.72  .0734    0.000   212    5    100.0   10 
 9/20/19  4:30p   66.2   66.3   66.1    79   59.5   2.0   NNW   0.33   4.0    NW   66.2   67.1   67.1   76.2  30.167  0.00  0.00   393     5.63    531     5.2  0.37   5.3   0.000   0.008   75.8    59   60.4   76.5  10.72  .0734    0.000   213    5    100.0   10 
 9/20/19  4:40p   66.6   66.6   66.2    79   59.9   2.0   NNW   0.33   4.0     N   66.6   67.5   67.5   76.3  30.169  0.00  0.00   369     5.29    524     4.5  0.32   5.0   0.000   0.011   75.9    59   60.5   76.5  10.71  .0734    0.000   213    5    100.0   10 
 9/20/19  4:50p   66.4   66.6   66.3    79   59.7   2.0   NNW   0.33   4.0     N   66.4   67.3   67.3   72.5  30.169  0.00  0.00   215     3.08    255     3.7  0.26   4.0   0.000   0.010   75.9    59   60.5   76.5  10.71  .0734    0.000   213    5    100.0   10 
 9/20/19  5:00p   65.6   66.5   65.6    79   58.9   2.0    NW   0.33   3.0   ENE   65.6   66.3   66.3   70.2  30.166  0.00  0.00   169     2.42    188     3.6  0.26   3.7   0.000   0.004   76.0    59   60.6   76.6  10.71  .0734    0.008   212    5    100.0   10 
 9/20/19  5:10p   65.1   65.6   65.1    80   58.8   2.0    NW   0.33   4.0    NW   65.1   65.8   65.8   70.1  30.166  0.00  0.00   175     2.51    186     3.8  0.27   3.8   0.000   0.001   76.0    59   60.6   76.6  10.71  .0734    0.000   213    5    100.0   10 
 9/20/19  5:20p   64.9   65.1   64.9    80   58.6   2.0    NW   0.33   3.0    NW   64.9   65.6   65.6   69.6  30.163  0.00  0.00   160     2.29    165     3.7  0.26   3.8   0.001   0.000   76.1    59   60.7   76.7  10.71  .0733    0.000   211    5    100.0   10 
 9/20/19  5:30p   65.0   65.0   64.8    80   58.7   2.0   NNE   0.33   3.0   NNE   65.0   65.7   65.7   70.3  30.163  0.00  0.00   173     2.48    220     3.5  0.25   3.5   0.000   0.000   76.1    59   60.7   76.7  10.71  .0733    0.000   212    5    100.0   10 
 9/20/19  5:40p   65.1   65.2   64.9    81   59.1   2.0   NNW   0.33   3.0   NNW   65.1   65.8   65.8   69.5  30.164  0.00  0.00   140     2.01    169     3.2  0.23   3.4   0.000   0.001   76.1    59   60.7   76.7  10.71  .0733    0.000   211    5    100.0   10 
 9/20/19  5:50p   64.9   65.2   64.9    81   58.9   2.0     N   0.33   4.0    NW   64.9   65.6   65.6   68.0  30.165  0.00  0.00   103     1.48    107     2.9  0.21   3.0   0.001   0.000   76.2    59   60.8   76.8  10.70  .0733    0.000   208    5    100.0   10 
 9/20/19  6:00p   65.0   65.0   64.8    81   59.0   2.0   NNE   0.33   4.0   NNE   65.0   65.7   65.7   68.9  30.162  0.00  0.00   118     1.69    148     2.8  0.20   2.8   0.000   0.000   76.2    59   60.8   76.8  10.70  .0733    0.004   214    5    100.0   10 
 9/20/19  6:10p   65.1   65.2   65.0    81   59.1   2.0     N   0.33   4.0     N   65.1   65.8   65.8   69.2  30.165  0.00  0.00   120     1.72    158     2.8  0.20   2.8   0.000   0.001   76.2    59   60.8   76.8  10.70  .0733    0.000   212    5    100.0   10 
 9/20/19  6:20p   65.8   65.8   65.2    81   59.8   3.0   NNE   0.50   4.0   NNE   65.8   66.7   66.7   70.9  30.165  0.00  0.00   139     1.99    163     2.7  0.19   2.7   0.000   0.006   76.2    59   60.8   76.8  10.70  .0733    0.000   212    5    100.0   10 
 9/20/19  6:30p   65.9   66.0   65.8    80   59.6   3.0     N   0.50   5.0     N   65.9   66.8   66.8   69.8  30.164  0.00  0.00   107     1.53    123     2.4  0.17   2.5   0.000   0.006   76.2    59   60.8   76.8  10.70  .0733    0.000   212    5    100.0   10 
 9/20/19  6:40p   65.8   66.0   65.8    80   59.5   3.0    NE   0.50   4.0   NNE   65.8   66.7   66.7   68.7  30.162  0.00  0.00    81     1.16    114     2.3  0.16   2.4   0.000   0.006   76.1    59   60.7   76.7  10.71  .0733    0.000   213    5    100.0   10 
 9/20/19  6:50p   65.4   65.8   65.4    81   59.4   3.0   ENE   0.50   4.0   ENE   65.4   66.2   66.2   66.6  30.160  0.00  0.00    42     0.60     51     0.0  0.00   0.0   0.000   0.003   76.0    59   60.6   76.6  10.71  .0734    0.000   212    5    100.0   10 
 9/20/19  7:00p   65.0   65.4   65.0    81   59.0   3.0    NE   0.50   6.0     E   65.0   65.7   65.7   64.0  30.156  0.00  0.00    23     0.33     30     0.0  0.00   0.0   0.000   0.000   75.8    59   60.4   76.5  10.72  .0734    0.002   213    5    100.0   10 
 9/20/19  7:10p   64.7   65.0   64.7    81   58.7   3.0    NE   0.50   5.0   NNE   64.7   65.4   65.4   63.5  30.156  0.00  0.00    13     0.19     16     0.0  0.00   0.0   0.002   0.000   75.6    60   60.7   76.4  10.93  .0734    0.000   212    5    100.0   10 
 9/20/19  7:20p   64.2   64.7   64.2    82   58.6   3.0    NE   0.50   6.0    NE   64.2   64.8   64.8   62.7  30.154  0.00  0.00     7     0.10      9     0.0  0.00   0.0   0.006   0.000   74.9    60   60.1   75.8  10.95  .0735    0.000   213    5    100.0   10 
 9/20/19  7:30p   63.9   64.2   63.9    82   58.3   2.0   ENE   0.33   4.0   ENE   63.9   64.4   64.4   62.2  30.152  0.00  0.00     2     0.03      5     0.0  0.00   0.0   0.008   0.000   74.7    60   59.9   75.5  10.96  .0736    0.000   214    5    100.0   10 
 9/20/19  7:40p   63.6   63.9   63.6    82   58.0   1.0   ENE   0.17   2.0   ENE   63.6   64.1   64.1   61.8  30.151  0.00  0.00     0     0.00      0     0.0  0.00   0.0   0.010   0.000   74.9    60   60.1   75.8  10.95  .0735    0.000   208    5    100.0   10 
 9/20/19  7:50p   63.3   63.6   63.3    82   57.7   1.0   ENE   0.17   3.0   ENE   63.3   63.7   63.7   61.4  30.153  0.00  0.00     0     0.00      0     0.0  0.00   0.0   0.012   0.000   75.1    60   60.3   76.0  10.95  .0735    0.000   211    5    100.0   10 
 9/20/19  8:00p   63.0   63.3   63.0    82   57.4   0.0   ENE   0.00   1.0   ENE   63.0   63.4   63.4   61.1  30.151  0.00  0.00     0     0.00      0     0.0  0.00   0.0   0.014   0.000   75.2    60   60.4   76.1  10.94  .0735    0.000   212    5    100.0   10 
 9/20/19  8:10p   62.7   63.0   62.7    83   57.5   0.0   ENE   0.00   1.0   ENE   62.7   63.1   63.1   60.8  30.149  0.00  0.00     0     0.00      0     0.0  0.00   0.0   0.016   0.000   75.3    60   60.5   76.1  10.94  .0734    0.000   209    5    100.0   10 
 9/20/19  8:20p   62.5   62.7   62.5    83   57.3   0.0   ENE   0.00   1.0   ENE   62.5   62.8   62.8   60.5  30.150  0.00  0.00     0     0.00      0     0.0  0.00   0.0   0.017   0.000   75.4    60   60.5   76.2  10.93  .0734    0.000   213    5    100.0   10 
 9/20/19  8:30p   62.2   62.5   62.2    83   57.0   0.0   ENE   0.00   1.0   ENE   62.2   62.5   62.5   60.2  30.151  0.00  0.00     0     0.00      0     0.0  0.00   0.0   0.019   0.000   75.5    60   60.6   76.3  10.93  .0734    0.000   211    5    100.0   10 
 9/20/19  8:40p   61.9   62.2   61.9    83   56.7   0.0   ENE   0.00   1.0   ENE   61.9   62.1   62.1   59.8  30.153  0.00  0.00     0     0.00      0     0.0  0.00   0.0   0.022   0.000   75.5    60   60.6   76.3  10.93  .0734    0.000   209    5    100.0   10 
 9/20/19  8:50p   61.5   61.9   61.5    83   56.3   0.0   ENE   0.00   1.0   ENE   61.5   61.7   61.7   59.4  30.154  0.00  0.00     0     0.00      0     0.0  0.00   0.0   0.024   0.000   75.6    60   60.7   76.4  10.93  .0734    0.000   214    5    100.0   10 
 9/20/19  9:00p   61.3   61.5   61.3    83   56.1   0.0   ENE   0.00   1.0   ENE   61.3   61.5   61.5   59.2  30.153  0.00  0.00     0     0.00      0     0.0  0.00   0.0   0.026   0.000   75.6    60   60.7   76.4  10.93  .0734    0.001   211    5    100.0   10 
 9/20/19  9:10p   61.1   61.3   61.0    84   56.2   0.0   ENE   0.00   2.0   ENE   61.1   61.3   61.3   59.0  30.153  0.00  0.00     0     0.00      0     0.0  0.00   0.0   0.027   0.000   75.7    60   60.8   76.5  10.92  .0734    0.000   211    5    100.0   10 
 9/20/19  9:20p   60.9   61.1   60.9    84   56.0   1.0   ENE   0.17   2.0   ENE   60.9   61.1   61.1   58.8  30.158  0.00  0.00     0     0.00      0     0.0  0.00   0.0   0.028   0.000   75.7    60   60.8   76.5  10.92  .0734    0.000   213    5    100.0   10 
 9/20/19  9:30p   60.9   60.9   60.9    84   56.0   1.0   ENE   0.17   2.0   ENE   60.9   61.1   61.1   58.8  30.158  0.00  0.00     0     0.00      0     0.0  0.00   0.0   0.028   0.000   75.7    60   60.8   76.5  10.92  .0734    0.000   210    5    100.0   10 
 9/20/19  9:40p   60.8   60.9   60.8    84   55.9   2.0   ESE   0.33   4.0   ESE   60.8   60.9   60.9   58.5  30.160  0.00  0.00     0     0.00      0     0.0  0.00   0.0   0.029   0.000   75.7    60   60.8   76.5  10.92  .0734    0.000   212    5    100.0   10 
 9/20/19  9:50p   60.9   60.9   60.8    84   56.0   2.0   ESE   0.33   4.0   ESE   60.9   61.1   61.1   58.8  30.157  0.00  0.00     0     0.00      0     0.0  0.00   0.0   0.028   0.000   75.7    60   60.8   76.5  10.92  .0734    0.000   213    5    100.0   10 
 9/20/19 10:00p   60.8   60.9   60.8    85   56.3   2.0   ESE   0.33   3.0   ESE   60.8   61.0   61.0   58.7  30.158  0.00  0.00     0     0.00      0     0.0  0.00   0.0   0.029   0.000   75.7    60   60.8   76.5  10.92  .0734    0.001   213    5    100.0   10 
 9/20/19 10:10p   60.8   60.8   60.8    85   56.3   2.0   ESE   0.33   4.0   SSE   60.8   61.0   61.0   58.7  30.161  0.00  0.00     0     0.00      0     0.0  0.00   0.0   0.029   0.000   75.7    60   60.8   76.5  10.92  .0734    0.000   211    5    100.0   10 
 9/20/19 10:20p   60.9   60.9   60.8    85   56.4   2.0   ESE   0.33   4.0   SSE   60.9   61.1   61.1   58.8  30.160  0.00  0.00     0     0.00      0     0.0  0.00   0.0   0.028   0.000   75.7    59   60.4   76.4  10.72  .0734    0.000   214    5    100.0   10 
 9/20/19 10:30p   61.0   61.0   60.9    85   56.5   2.0   ESE   0.33   6.0   ESE   61.0   61.2   61.2   58.9  30.157  0.00  0.00     0     0.00      0     0.0  0.00   0.0   0.028   0.000   75.7    59   60.4   76.4  10.72  .0734    0.000   212    5    100.0   10 
 9/20/19 10:40p   60.9   61.0   60.9    85   56.4   1.0   ESE   0.17   3.0   ESE   60.9   61.1   61.1   58.8  30.160  0.00  0.00     0     0.00      0     0.0  0.00   0.0   0.028   0.000   75.7    59   60.4   76.4  10.72  .0734    0.000   211    5    100.0   10 
 9/20/19 10:50p   61.0   61.0   60.9    85   56.5   1.0   ESE   0.17   2.0   ESE   61.0   61.2   61.2   58.9  30.158  0.00  0.00     0     0.00      0     0.0  0.00   0.0   0.028   0.000   75.7    59   60.4   76.4  10.72  .0734    0.000   213    5    100.0   10 
 9/20/19 11:00p   61.0   61.0   60.9    85   56.5   1.0   ESE   0.17   2.0   ESE   61.0   61.2   61.2   58.9  30.157  0.00  0.00     0     0.00      0     0.0  0.00   0.0   0.028   0.000   75.7    59   60.4   76.4  10.72  .0734    0.001   213    5    100.0   10 
 9/20/19 11:10p   61.1   61.1   61.0    85   56.6   1.0   ESE   0.17   2.0   ESE   61.1   61.3   61.3   59.0  30.157  0.00  0.00     0     0.00      0     0.0  0.00   0.0   0.027   0.000   75.7    59   60.4   76.4  10.72  .0734    0.000   212    5    100.0   10 
 9/20/19 11:20p   61.1   61.1   61.1    85   56.6   2.0   ESE   0.33   6.0   ESE   61.1   61.3   61.3   59.0  30.157  0.00  0.00     0     0.00      0     0.0  0.00   0.0   0.027   0.000   75.7    59   60.4   76.4  10.72  .0734    0.000   214    5    100.0   10 
 9/20/19 11:30p   61.1   61.1   61.1    85   56.6   2.0   ESE   0.33   4.0   ESE   61.1   61.3   61.3   59.0  30.158  0.00  0.00     0     0.00      0     0.0  0.00   0.0   0.027   0.000   75.7    59   60.4   76.4  10.72  .0734    0.000   212    5    100.0   10 
 9/20/19 11:40p   61.1   61.2   61.1    85   56.6   2.0   ESE   0.33   3.0   ESE   61.1   61.3   61.3   59.0  30.161  0.00  0.00     0     0.00      0     0.0  0.00   0.0   0.027   0.000   75.7    59   60.4   76.4  10.72  .0734    0.000   211    5    100.0   10 
 9/20/19 11:50p   61.2   61.2   61.1    85   56.7   1.0   ESE   0.17   2.0   ESE   61.2   61.4   61.4   59.1  30.160  0.00  0.00     0     0.00      0     0.0  0.00   0.0   0.026   0.000   75.6    59   60.3   76.3  10.73  .0734    0.000   212    5    100.0   10 
 9/21/19 12:00a   61.3   61.3   61.2    85   56.8   0.0   ESE   0.00   1.0   ESE   61.3   61.5   61.5   59.2  30.164  0.00  0.00     0     0.00      0     0.0  0.00   0.0   0.026   0.000   75.6    59   60.3   76.3  10.73  .0734    0.001   213    5    100.0   10 
 9/21/19 12:10a   61.4   61.4   61.3    85   56.8   0.0   ESE   0.00   1.0   ESE   61.4   61.6   61.6   59.3  30.165  0.00  0.00     0     0.00      0     0.0  0.00   0.0   0.025   0.000   75.6    59   60.3   76.3  10.73  .0734    0.000   210    5    100.0   10 
 9/21/19 12:20a   61.5   61.5   61.4    85   56.9   0.0   ---   0.00   0.0   ---   61.5   61.8   61.8   59.5  30.166  0.00  0.00     0     0.00      0     0.0  0.00   0.0   0.024   0.000   75.6    59   60.3   76.3  10.73  .0734    0.000   212    5    100.0   10 
 9/21/19 12:30a   61.5   61.6   61.4    85   56.9   1.0    SE   0.17   4.0   ESE   61.5   61.8   61.8   59.5  30.165  0.00  0.00     0     0.00      0     0.0  0.00   0.0   0.024   0.000   75.6    59   60.3   76.3  10.73  .0734    0.000   211    5    100.0   10 
 9/21/19 12:40a   61.5   61.6   61.5    85   56.9   2.0   ESE   0.33   4.0   ESE   61.5   61.8   61.8   59.5  30.169  0.00  0.00     0     0.00      0     0.0  0.00   0.0   0.024   0.000   75.6    59   60.3   76.3  10.73  .0735    0.000   213    5    100.0   10 
 9/21/19 12:50a   61.5   61.5   61.4    85   56.9   1.0   ESE   0.17   3.0     E   61.5   61.8   61.8   59.5  30.171  0.00  0.00     0     0.00      0     0.0  0.00   0.0   0.024   0.000   75.6    59   60.3   76.3  10.73  .0735    0.000   214    5    100.0   10 
 9/21/19  1:00a   61.6   61.6   61.5    85   57.0   1.0   ESE   0.17   2.0   ESE   61.6   61.9   61.9   59.6  30.174  0.00  0.00     0     0.00      0     0.0  0.00   0.0   0.024   0.000   75.5    59   60.2   76.2  10.73  .0735    0.001   213    5    100.0   10 
 9/21/19  1:10a   61.7   61.7   61.6    85   57.1   0.0   ESE   0.00   2.0   ESE   61.7   62.0   62.0   59.7  30.176  0.00  0.00     0     0.00      0     0.0  0.00   0.0   0.023   0.000   75.5    59   60.2   76.2  10.73  .0735    0.000   214    5    100.0   10 
 9/21/19  1:20a   61.7   61.8   61.7    85   57.1   1.0   ESE   0.17   2.0   ESE   61.7   62.0   62.0   59.7  30.177  0.00  0.00     0     0.00      0     0.0  0.00   0.0   0.023   0.000   75.5    59   60.2   76.2  10.73  .0735    0.000   212    5    100.0   10 
 9/21/19  1:30a   61.7   61.8   61.7    85   57.1   1.0   ESE   0.17   2.0   ESE   61.7   62.0   62.0   59.7  30.177  0.00  0.00     0     0.00      0     0.0  0.00   0.0   0.023   0.000   75.5    59   60.2   76.2  10.73  .0735    0.000   211    5    100.0   10 
 9/21/19  1:40a   61.6   61.7   61.6    85   57.0   2.0   ESE   0.33   4.0   ESE   61.6   61.9   61.9   59.6  30.177  0.00  0.00     0     0.00      0     0.0  0.00   0.0   0.024   0.000   75.4    59   60.1   76.1  10.73  .0735    0.000   214    5    100.0   10 
 9/21/19  1:50a   61.6   61.6   61.6    85   57.0   2.0    SE   0.33   4.0    SE   61.6   61.9   61.9   59.6  30.178  0.00  0.00     0     0.00      0     0.0  0.00   0.0   0.024   0.000   75.4    59   60.1   76.1  10.73  .0735    0.000   213    5    100.0   10 
 9/21/19  2:00a   61.7   61.7   61.6    85   57.1   2.0   ESE   0.33   4.0   SSE   61.7   62.0   62.0   59.7  30.178  0.00  0.00     0     0.00      0     0.0  0.00   0.0   0.023   0.000   75.4    59   60.1   76.1  10.73  .0735    0.001   212    5    100.0   10 
 9/21/19  2:10a   61.8   61.8   61.7    85   57.2   1.0   ESE   0.17   3.0    SE   61.8   62.1   62.1   59.8  30.177  0.00  0.00     0     0.00      0     0.0  0.00   0.0   0.022   0.000   75.4    59   60.1   76.1  10.73  .0735    0.000   212    5    100.0   10 
 9/21/19  2:20a   61.8   61.8   61.7    85   57.2   1.0   ESE   0.17   3.0   ESE   61.8   62.1   62.1   59.8  30.176  0.00  0.00     0     0.00      0     0.0  0.00   0.0   0.022   0.000   75.3    59   60.0   76.1  10.74  .0735    0.000   212    5    100.0   10 
 9/21/19  2:30a   61.8   61.8   61.8    85   57.2   1.0   ESE   0.17   2.0    SE   61.8   62.1   62.1   59.8  30.176  0.00  0.00     0     0.00      0     0.0  0.00   0.0   0.022   0.000   75.3    59   60.0   76.1  10.74  .0735    0.000   212    5    100.0   10 
 9/21/19  2:40a   61.8   61.9   61.8    85   57.2   1.0   ESE   0.17   4.0     E   61.8   62.1   62.1   59.8  30.174  0.00  0.00     0     0.00      0     0.0  0.00   0.0   0.022   0.000   75.3    59   60.0   76.1  10.74  .0735    0.000   214    5    100.0   10 
 9/21/19  2:50a   61.7   61.8   61.7    85   57.1   1.0   ESE   0.17   3.0   ESE   61.7   62.0   62.0   59.7  30.174  0.00  0.00     0     0.00      0     0.0  0.00   0.0   0.023   0.000   75.3    59   60.0   76.1  10.74  .0735    0.000   211    5    100.0   10 
 9/21/19  3:00a   61.5   61.7   61.5    85   56.9   2.0   ESE   0.33   4.0     E   61.5   61.8   61.8   59.5  30.173  0.00  0.00     0     0.00      0     0.0  0.00   0.0   0.024   0.000   75.2    59   59.9   76.0  10.74  .0735    0.001   213    5    100.0   10 
 9/21/19  3:10a   61.4   61.5   61.4    85   56.8   2.0   ESE   0.33   6.0   ESE   61.4   61.6   61.6   59.3  30.171  0.00  0.00     0     0.00      0     0.0  0.00   0.0   0.025   0.000   75.2    59   59.9   76.0  10.74  .0735    0.000   211    5    100.0   10 
 9/21/19  3:20a   61.3   61.4   61.3    85   56.8   2.0   ESE   0.33   4.0   ESE   61.3   61.5   61.5   59.2  30.168  0.00  0.00     0     0.00      0     0.0  0.00   0.0   0.026   0.000   75.2    59   59.9   76.0  10.74  .0735    0.000   212    5    100.0   10 
 9/21/19  3:30a   61.2   61.3   61.2    85   56.7   2.0   ESE   0.33   5.0    SE   61.2   61.4   61.4   59.1  30.167  0.00  0.00     0     0.00      0     0.0  0.00   0.0   0.026   0.000   75.2    59   59.9   76.0  10.74  .0735    0.000   212    5    100.0   10 
 9/21/19  3:40a   61.1   61.2   61.1    85   56.6   2.0   ESE   0.33   4.0   ESE   61.1   61.3   61.3   59.0  30.165  0.00  0.00     0     0.00      0     0.0  0.00   0.0   0.027   0.000   75.1    59   59.8   75.9  10.75  .0735    0.000   213    5    100.0   10 
 9/21/19  3:50a   61.1   61.1   61.0    85   56.6   3.0   ESE   0.50   5.0   SSE   61.1   61.3   61.3   59.0  30.163  0.00  0.00     0     0.00      0     0.0  0.00   0.0   0.027   0.000   75.1    59   59.8   75.9  10.75  .0735    0.000   209    5    100.0   10 
Email: AdamSPAM@StormwatchersRetreat.com (To send me email remove the word 'SPAM' from my email address.)